Skip Navigation LinksHome page > Weather > Current weather Skip Navigation Links

Current Weather

Nantucket Memorial, Nantucket, Mass.

For information only: do not use for flight planning or navigation.
Latest weather
Observation time Friday, February 21, 2020 3:53 AM EST
Local time Friday, February 21, 2020 4:42 AM EST
Flight conditions Visual Meteorological Conditions
Winds
Wind direction North (360°)
Wind speed 21 mph
Wind gusting to 29 mph
Visibility 10 mi.
Sky condition
Ceiling unlimited
Cloud layer few clouds 2,900 ft.
Temperature 26°F
Dewpoint 14°F
Altimeter 30.36 in.Hg
Pressure change last 3 hours0.00 in.Hg
Pressure rising, then falling
Derived measurements
Relative humidity 60%
Wind chill 12°F
Density altitude -2663 ft.
Sea-level pressure 30.36 in.Hg
Remarks
Fully automated report.
Automated weather observing station with precipitation discriminator.
METAR KACK 210853Z AUTO 36018G25KT 10SM FEW029 M03/M10 A3036 RMK AO2 SLP281 T10331100 50000

Settings

Location code

InnerDrive.Weather 4.0.6770.0 Release CLR 4.0.30319.42000
Copyright ©2018 Inner Drive Technology. All rights reserved. Portions Copyright ©1986-2018 David Braverman.

Find weather

Site navigation


Skip Navigation Links

Place info

Page info

PayPal - The safer, easier way to pay online!

Return home.

Copyright ©2020 Inner Drive Technology. Purveyors of fine, hand-crafted computer software. Page printed 2020-02-21T09:42:46 UTC.